sensor_id;sensor_type;location;lat;lon;timestamp;P1;durP1;ratioP1;P2;durP2;ratioP2
53666;SDS011;39568;51.026;5.468;2022-11-27T00:01:57;17.92;;;5.68;;
53666;SDS011;39568;51.026;5.468;2022-11-27T00:04:24;31.42;;;7.45;;
53666;SDS011;39568;51.026;5.468;2022-11-27T00:06:50;18.10;;;8.20;;
53666;SDS011;39568;51.026;5.468;2022-11-27T00:09:17;28.27;;;6.30;;
53666;SDS011;39568;51.026;5.468;2022-11-27T00:11:44;22.60;;;9.10;;
53666;SDS011;39568;51.026;5.468;2022-11-27T00:14:13;25.80;;;5.70;;
53666;SDS011;39568;51.026;5.468;2022-11-27T00:16:41;23.33;;;6.88;;
53666;SDS011;39568;51.026;5.468;2022-11-27T00:19:08;23.63;;;5.65;;
53666;SDS011;39568;51.026;5.468;2022-11-27T00:21:36;19.33;;;6.10;;
53666;SDS011;39568;51.026;5.468;2022-11-27T00:24:04;19.20;;;7.05;;
53666;SDS011;39568;51.026;5.468;2022-11-27T00:26:32;31.25;;;6.38;;
53666;SDS011;39568;51.026;5.468;2022-11-27T00:28:59;15.25;;;7.07;;
53666;SDS011;39568;51.026;5.468;2022-11-27T00:31:28;8.30;;;4.55;;
53666;SDS011;39568;51.026;5.468;2022-11-27T00:33:56;19.05;;;4.78;;
53666;SDS011;39568;51.026;5.468;2022-11-27T00:36:25;16.65;;;5.18;;
53666;SDS011;39568;51.026;5.468;2022-11-27T00:38:52;11.95;;;6.53;;
53666;SDS011;39568;51.026;5.468;2022-11-27T00:41:19;26.95;;;4.70;;
53666;SDS011;39568;51.026;5.468;2022-11-27T00:43:47;16.75;;;4.88;;
53666;SDS011;39568;51.026;5.468;2022-11-27T00:46:14;10.27;;;5.03;;
53666;SDS011;39568;51.026;5.468;2022-11-27T00:48:44;16.25;;;5.18;;
53666;SDS011;39568;51.026;5.468;2022-11-27T00:51:12;15.80;;;5.35;;
53666;SDS011;39568;51.026;5.468;2022-11-27T00:53:40;15.13;;;5.07;;
53666;SDS011;39568;51.026;5.468;2022-11-27T00:56:07;19.77;;;5.28;;
53666;SDS011;39568;51.026;5.468;2022-11-27T00:58:34;15.93;;;4.57;;
53666;SDS011;39568;51.026;5.468;2022-11-27T01:01:01;16.70;;;4.72;;
53666;SDS011;39568;51.026;5.468;2022-11-27T01:03:30;11.32;;;4.55;;
53666;SDS011;39568;51.026;5.468;2022-11-27T01:06:02;22.08;;;5.65;;
53666;SDS011;39568;51.026;5.468;2022-11-27T01:08:29;18.38;;;5.43;;
53666;SDS011;39568;51.026;5.468;2022-11-27T01:10:56;14.95;;;5.63;;
53666;SDS011;39568;51.026;5.468;2022-11-27T01:13:24;19.65;;;5.07;;
53666;SDS011;39568;51.026;5.468;2022-11-27T01:15:57;19.77;;;5.00;;
53666;SDS011;39568;51.026;5.468;2022-11-27T01:18:24;17.27;;;4.18;;
53666;SDS011;39568;51.026;5.468;2022-11-27T01:20:51;15.00;;;4.68;;
53666;SDS011;39568;51.026;5.468;2022-11-27T01:23:19;12.35;;;5.05;;
53666;SDS011;39568;51.026;5.468;2022-11-27T01:25:46;25.67;;;4.93;;
53666;SDS011;39568;51.026;5.468;2022-11-27T01:28:13;9.52;;;3.70;;
53666;SDS011;39568;51.026;5.468;2022-11-27T01:30:40;7.22;;;4.05;;
53666;SDS011;39568;51.026;5.468;2022-11-27T01:33:07;13.02;;;4.53;;
53666;SDS011;39568;51.026;5.468;2022-11-27T01:35:34;14.00;;;4.63;;
53666;SDS011;39568;51.026;5.468;2022-11-27T01:38:00;9.77;;;4.18;;
53666;SDS011;39568;51.026;5.468;2022-11-27T01:40:28;7.63;;;4.63;;
53666;SDS011;39568;51.026;5.468;2022-11-27T01:42:55;9.95;;;4.80;;
53666;SDS011;39568;51.026;5.468;2022-11-27T01:45:22;19.75;;;5.40;;
53666;SDS011;39568;51.026;5.468;2022-11-27T01:47:49;11.82;;;4.43;;
53666;SDS011;39568;51.026;5.468;2022-11-27T01:50:18;6.05;;;3.22;;
53666;SDS011;39568;51.026;5.468;2022-11-27T01:52:50;14.63;;;3.95;;
53666;SDS011;39568;51.026;5.468;2022-11-27T01:55:21;7.22;;;2.95;;
53666;SDS011;39568;51.026;5.468;2022-11-27T01:57:55;7.47;;;3.53;;
53666;SDS011;39568;51.026;5.468;2022-11-27T02:00:25;6.10;;;3.40;;
53666;SDS011;39568;51.026;5.468;2022-11-27T02:02:52;9.05;;;4.65;;
53666;SDS011;39568;51.026;5.468;2022-11-27T02:05:20;6.63;;;2.70;;
53666;SDS011;39568;51.026;5.468;2022-11-27T02:07:49;7.00;;;3.05;;
53666;SDS011;39568;51.026;5.468;2022-11-27T02:10:17;17.08;;;3.00;;
53666;SDS011;39568;51.026;5.468;2022-11-27T02:12:51;8.40;;;2.97;;
53666;SDS011;39568;51.026;5.468;2022-11-27T02:15:25;6.78;;;2.90;;
53666;SDS011;39568;51.026;5.468;2022-11-27T02:18:00;7.38;;;3.03;;
53666;SDS011;39568;51.026;5.468;2022-11-27T02:20:37;7.13;;;2.67;;
53666;SDS011;39568;51.026;5.468;2022-11-27T02:23:24;5.40;;;3.15;;
53666;SDS011;39568;51.026;5.468;2022-11-27T02:26:16;8.65;;;2.33;;
53666;SDS011;39568;51.026;5.468;2022-11-27T02:28:57;8.80;;;2.35;;
53666;SDS011;39568;51.026;5.468;2022-11-27T02:31:28;8.10;;;2.22;;
53666;SDS011;39568;51.026;5.468;2022-11-27T02:34:03;9.27;;;2.33;;
53666;SDS011;39568;51.026;5.468;2022-11-27T02:36:36;6.43;;;1.77;;
53666;SDS011;39568;51.026;5.468;2022-11-27T02:39:06;1.83;;;1.73;;
53666;SDS011;39568;51.026;5.468;2022-11-27T02:41:37;3.63;;;1.92;;
53666;SDS011;39568;51.026;5.468;2022-11-27T02:44:11;14.27;;;2.72;;
53666;SDS011;39568;51.026;5.468;2022-11-27T02:46:39;8.73;;;2.53;;
53666;SDS011;39568;51.026;5.468;2022-11-27T02:49:07;1.52;;;1.42;;
53666;SDS011;39568;51.026;5.468;2022-11-27T02:51:37;9.18;;;2.33;;
53666;SDS011;39568;51.026;5.468;2022-11-27T02:54:07;4.90;;;1.88;;
53666;SDS011;39568;51.026;5.468;2022-11-27T02:56:38;7.95;;;2.28;;
53666;SDS011;39568;51.026;5.468;2022-11-27T02:59:06;6.32;;;2.22;;
53666;SDS011;39568;51.026;5.468;2022-11-27T03:01:38;7.25;;;2.53;;
53666;SDS011;39568;51.026;5.468;2022-11-27T03:04:08;4.80;;;1.70;;
53666;SDS011;39568;51.026;5.468;2022-11-27T03:09:09;7.10;;;2.13;;
53666;SDS011;39568;51.026;5.468;2022-11-27T03:11:40;3.10;;;1.80;;
53666;SDS011;39568;51.026;5.468;2022-11-27T03:14:07;3.72;;;2.00;;
53666;SDS011;39568;51.026;5.468;2022-11-27T03:16:38;3.63;;;1.90;;
53666;SDS011;39568;51.026;5.468;2022-11-27T03:19:11;7.82;;;2.03;;
53666;SDS011;39568;51.026;5.468;2022-11-27T03:21:42;4.70;;;1.65;;
53666;SDS011;39568;51.026;5.468;2022-11-27T03:24:11;2.55;;;1.63;;
53666;SDS011;39568;51.026;5.468;2022-11-27T03:26:38;4.80;;;0.98;;
53666;SDS011;39568;51.026;5.468;2022-11-27T03:29:06;2.83;;;1.40;;
53666;SDS011;39568;51.026;5.468;2022-11-27T03:31:38;1.83;;;1.73;;
53666;SDS011;39568;51.026;5.468;2022-11-27T03:34:05;13.77;;;2.28;;
53666;SDS011;39568;51.026;5.468;2022-11-27T03:36:32;4.25;;;1.75;;
53666;SDS011;39568;51.026;5.468;2022-11-27T03:38:58;3.38;;;2.38;;
53666;SDS011;39568;51.026;5.468;2022-11-27T03:41:27;26.10;;;2.65;;
53666;SDS011;39568;51.026;5.468;2022-11-27T03:44:05;3.28;;;2.30;;
53666;SDS011;39568;51.026;5.468;2022-11-27T03:46:42;5.65;;;1.90;;
53666;SDS011;39568;51.026;5.468;2022-11-27T03:49:17;3.80;;;1.83;;
53666;SDS011;39568;51.026;5.468;2022-11-27T03:51:51;5.75;;;2.33;;
53666;SDS011;39568;51.026;5.468;2022-11-27T03:54:25;2.83;;;1.83;;
53666;SDS011;39568;51.026;5.468;2022-11-27T03:57:01;3.47;;;1.70;;
53666;SDS011;39568;51.026;5.468;2022-11-27T03:59:36;6.38;;;1.75;;
53666;SDS011;39568;51.026;5.468;2022-11-27T04:02:11;3.38;;;1.55;;
53666;SDS011;39568;51.026;5.468;2022-11-27T04:04:38;2.50;;;1.92;;
53666;SDS011;39568;51.026;5.468;2022-11-27T04:07:05;8.25;;;1.88;;
53666;SDS011;39568;51.026;5.468;2022-11-27T04:09:32;5.82;;;1.70;;
53666;SDS011;39568;51.026;5.468;2022-11-27T04:11:58;3.38;;;1.48;;
53666;SDS011;39568;51.026;5.468;2022-11-27T04:14:25;8.88;;;1.73;;
53666;SDS011;39568;51.026;5.468;2022-11-27T04:16:51;11.35;;;2.45;;
53666;SDS011;39568;51.026;5.468;2022-11-27T04:19:20;5.13;;;1.80;;
53666;SDS011;39568;51.026;5.468;2022-11-27T04:21:46;4.80;;;2.03;;
53666;SDS011;39568;51.026;5.468;2022-11-27T04:24:13;7.63;;;1.75;;
53666;SDS011;39568;51.026;5.468;2022-11-27T04:26:40;5.18;;;2.53;;
53666;SDS011;39568;51.026;5.468;2022-11-27T04:29:06;4.43;;;2.28;;
53666;SDS011;39568;51.026;5.468;2022-11-27T04:31:33;6.65;;;2.83;;
53666;SDS011;39568;51.026;5.468;2022-11-27T04:34:00;7.05;;;1.60;;
53666;SDS011;39568;51.026;5.468;2022-11-27T04:36:28;1.40;;;1.30;;
53666;SDS011;39568;51.026;5.468;2022-11-27T04:38:54;4.25;;;1.63;;
53666;SDS011;39568;51.026;5.468;2022-11-27T04:41:21;8.30;;;2.55;;
53666;SDS011;39568;51.026;5.468;2022-11-27T04:43:47;8.88;;;1.67;;
53666;SDS011;39568;51.026;5.468;2022-11-27T04:46:14;3.10;;;1.67;;
53666;SDS011;39568;51.026;5.468;2022-11-27T04:48:41;4.75;;;1.60;;
53666;SDS011;39568;51.026;5.468;2022-11-27T04:51:07;6.72;;;2.22;;
53666;SDS011;39568;51.026;5.468;2022-11-27T04:53:35;1.95;;;1.45;;
53666;SDS011;39568;51.026;5.468;2022-11-27T04:56:02;3.42;;;1.83;;
53666;SDS011;39568;51.026;5.468;2022-11-27T04:58:29;7.60;;;1.98;;
53666;SDS011;39568;51.026;5.468;2022-11-27T05:00:56;7.45;;;2.42;;
53666;SDS011;39568;51.026;5.468;2022-11-27T05:03:22;3.72;;;1.80;;
53666;SDS011;39568;51.026;5.468;2022-11-27T05:05:53;1.92;;;1.63;;
53666;SDS011;39568;51.026;5.468;2022-11-27T05:08:20;2.65;;;1.33;;
53666;SDS011;39568;51.026;5.468;2022-11-27T05:10:58;5.20;;;1.88;;
53666;SDS011;39568;51.026;5.468;2022-11-27T05:13:29;13.07;;;2.35;;
53666;SDS011;39568;51.026;5.468;2022-11-27T05:15:56;7.38;;;2.15;;
53666;SDS011;39568;51.026;5.468;2022-11-27T05:18:23;6.57;;;1.77;;
53666;SDS011;39568;51.026;5.468;2022-11-27T05:20:54;1.83;;;1.73;;
53666;SDS011;39568;51.026;5.468;2022-11-27T05:25:48;4.22;;;2.00;;
53666;SDS011;39568;51.026;5.468;2022-11-27T05:28:15;4.47;;;2.03;;
53666;SDS011;39568;51.026;5.468;2022-11-27T05:30:42;6.80;;;2.28;;
53666;SDS011;39568;51.026;5.468;2022-11-27T05:33:09;6.07;;;1.88;;
53666;SDS011;39568;51.026;5.468;2022-11-27T05:35:35;2.33;;;1.95;;
53666;SDS011;39568;51.026;5.468;2022-11-27T05:38:02;4.25;;;2.67;;
53666;SDS011;39568;51.026;5.468;2022-11-27T05:40:29;48.05;;;14.75;;
53666;SDS011;39568;51.026;5.468;2022-11-27T05:42:55;34.65;;;10.60;;
53666;SDS011;39568;51.026;5.468;2022-11-27T05:45:23;19.10;;;8.65;;
53666;SDS011;39568;51.026;5.468;2022-11-27T05:47:50;10.23;;;5.30;;
53666;SDS011;39568;51.026;5.468;2022-11-27T05:50:17;8.98;;;3.60;;
53666;SDS011;39568;51.026;5.468;2022-11-27T05:52:43;8.70;;;3.10;;
53666;SDS011;39568;51.026;5.468;2022-11-27T05:55:10;6.50;;;4.70;;
53666;SDS011;39568;51.026;5.468;2022-11-27T05:57:37;9.50;;;8.50;;
53666;SDS011;39568;51.026;5.468;2022-11-27T06:00:04;9.15;;;4.00;;
53666;SDS011;39568;51.026;5.468;2022-11-27T06:02:33;11.02;;;3.92;;
53666;SDS011;39568;51.026;5.468;2022-11-27T06:05:00;4.82;;;2.45;;
53666;SDS011;39568;51.026;5.468;2022-11-27T06:07:27;8.25;;;3.17;;
53666;SDS011;39568;51.026;5.468;2022-11-27T06:09:53;2.50;;;2.30;;
53666;SDS011;39568;51.026;5.468;2022-11-27T06:12:20;9.25;;;3.00;;
53666;SDS011;39568;51.026;5.468;2022-11-27T06:14:47;7.68;;;3.28;;
53666;SDS011;39568;51.026;5.468;2022-11-27T06:17:13;6.70;;;2.78;;
53666;SDS011;39568;51.026;5.468;2022-11-27T06:19:42;4.88;;;2.22;;
53666;SDS011;39568;51.026;5.468;2022-11-27T06:22:08;8.05;;;2.80;;
53666;SDS011;39568;51.026;5.468;2022-11-27T06:24:35;3.25;;;2.92;;
53666;SDS011;39568;51.026;5.468;2022-11-27T06:27:02;5.60;;;3.10;;
53666;SDS011;39568;51.026;5.468;2022-11-27T06:29:29;6.32;;;3.13;;
53666;SDS011;39568;51.026;5.468;2022-11-27T06:31:55;6.68;;;3.53;;
53666;SDS011;39568;51.026;5.468;2022-11-27T06:34:22;8.90;;;3.33;;
53666;SDS011;39568;51.026;5.468;2022-11-27T06:36:50;8.35;;;3.45;;
53666;SDS011;39568;51.026;5.468;2022-11-27T06:39:17;10.75;;;4.00;;
53666;SDS011;39568;51.026;5.468;2022-11-27T06:41:43;5.40;;;3.40;;
53666;SDS011;39568;51.026;5.468;2022-11-27T06:44:10;11.45;;;3.60;;
53666;SDS011;39568;51.026;5.468;2022-11-27T06:46:37;3.70;;;3.33;;
53666;SDS011;39568;51.026;5.468;2022-11-27T06:49:03;5.88;;;3.80;;
53666;SDS011;39568;51.026;5.468;2022-11-27T06:51:30;3.80;;;3.28;;
53666;SDS011;39568;51.026;5.468;2022-11-27T06:54:00;3.38;;;2.95;;
53666;SDS011;39568;51.026;5.468;2022-11-27T06:56:28;10.68;;;4.00;;
53666;SDS011;39568;51.026;5.468;2022-11-27T06:58:56;12.10;;;3.17;;
53666;SDS011;39568;51.026;5.468;2022-11-27T07:01:24;5.97;;;4.03;;
53666;SDS011;39568;51.026;5.468;2022-11-27T07:03:52;9.18;;;3.40;;
53666;SDS011;39568;51.026;5.468;2022-11-27T07:06:20;5.28;;;3.00;;
53666;SDS011;39568;51.026;5.468;2022-11-27T07:08:47;5.95;;;3.58;;
53666;SDS011;39568;51.026;5.468;2022-11-27T07:11:16;6.47;;;3.97;;
53666;SDS011;39568;51.026;5.468;2022-11-27T07:13:45;8.63;;;4.00;;
53666;SDS011;39568;51.026;5.468;2022-11-27T07:16:12;7.47;;;3.58;;
53666;SDS011;39568;51.026;5.468;2022-11-27T07:18:40;4.95;;;3.38;;
53666;SDS011;39568;51.026;5.468;2022-11-27T07:21:08;4.93;;;3.17;;
53666;SDS011;39568;51.026;5.468;2022-11-27T07:23:35;10.20;;;5.20;;
53666;SDS011;39568;51.026;5.468;2022-11-27T07:26:04;8.63;;;5.72;;
53666;SDS011;39568;51.026;5.468;2022-11-27T07:28:32;10.48;;;3.90;;
53666;SDS011;39568;51.026;5.468;2022-11-27T07:30:59;14.98;;;5.65;;
53666;SDS011;39568;51.026;5.468;2022-11-27T07:33:26;7.20;;;4.88;;
53666;SDS011;39568;51.026;5.468;2022-11-27T07:35:56;8.25;;;6.75;;
53666;SDS011;39568;51.026;5.468;2022-11-27T07:38:24;27.03;;;17.30;;
53666;SDS011;39568;51.026;5.468;2022-11-27T07:40:51;7.50;;;6.00;;
53666;SDS011;39568;51.026;5.468;2022-11-27T07:43:17;38.22;;;20.02;;
53666;SDS011;39568;51.026;5.468;2022-11-27T07:45:45;15.18;;;5.57;;
53666;SDS011;39568;51.026;5.468;2022-11-27T07:48:12;4.65;;;4.20;;
53666;SDS011;39568;51.026;5.468;2022-11-27T07:50:39;8.50;;;5.13;;
53666;SDS011;39568;51.026;5.468;2022-11-27T07:53:05;6.75;;;4.25;;
53666;SDS011;39568;51.026;5.468;2022-11-27T07:55:32;13.13;;;5.22;;
53666;SDS011;39568;51.026;5.468;2022-11-27T07:57:59;7.50;;;3.90;;
53666;SDS011;39568;51.026;5.468;2022-11-27T08:00:25;20.33;;;9.15;;
53666;SDS011;39568;51.026;5.468;2022-11-27T08:02:53;13.38;;;6.47;;
53666;SDS011;39568;51.026;5.468;2022-11-27T08:05:20;12.65;;;5.53;;
53666;SDS011;39568;51.026;5.468;2022-11-27T08:07:47;8.52;;;6.15;;
53666;SDS011;39568;51.026;5.468;2022-11-27T08:10:13;11.82;;;5.72;;
53666;SDS011;39568;51.026;5.468;2022-11-27T08:12:40;10.02;;;6.03;;
53666;SDS011;39568;51.026;5.468;2022-11-27T08:15:07;12.25;;;6.85;;
53666;SDS011;39568;51.026;5.468;2022-11-27T08:17:35;7.60;;;6.53;;
53666;SDS011;39568;51.026;5.468;2022-11-27T08:20:03;11.48;;;5.28;;
53666;SDS011;39568;51.026;5.468;2022-11-27T08:22:32;16.10;;;5.72;;
53666;SDS011;39568;51.026;5.468;2022-11-27T08:24:59;8.73;;;6.20;;
53666;SDS011;39568;51.026;5.468;2022-11-27T08:27:26;11.55;;;5.10;;
53666;SDS011;39568;51.026;5.468;2022-11-27T08:29:53;17.02;;;6.80;;
53666;SDS011;39568;51.026;5.468;2022-11-27T08:32:19;7.13;;;5.18;;
53666;SDS011;39568;51.026;5.468;2022-11-27T08:34:46;12.07;;;7.38;;
53666;SDS011;39568;51.026;5.468;2022-11-27T08:37:14;10.18;;;7.07;;
53666;SDS011;39568;51.026;5.468;2022-11-27T08:39:41;9.77;;;5.72;;
53666;SDS011;39568;51.026;5.468;2022-11-27T08:42:07;9.82;;;6.38;;
53666;SDS011;39568;51.026;5.468;2022-11-27T08:44:34;11.25;;;6.35;;
53666;SDS011;39568;51.026;5.468;2022-11-27T08:47:00;9.63;;;5.05;;
53666;SDS011;39568;51.026;5.468;2022-11-27T08:49:27;10.55;;;5.68;;
53666;SDS011;39568;51.026;5.468;2022-11-27T08:51:54;10.00;;;5.10;;
53666;SDS011;39568;51.026;5.468;2022-11-27T08:54:22;8.93;;;4.68;;
53666;SDS011;39568;51.026;5.468;2022-11-27T08:56:49;8.43;;;4.30;;
53666;SDS011;39568;51.026;5.468;2022-11-27T08:59:16;5.97;;;4.05;;
53666;SDS011;39568;51.026;5.468;2022-11-27T09:01:43;9.10;;;4.53;;
53666;SDS011;39568;51.026;5.468;2022-11-27T09:04:10;6.28;;;4.68;;
53666;SDS011;39568;51.026;5.468;2022-11-27T09:06:39;15.73;;;6.63;;
53666;SDS011;39568;51.026;5.468;2022-11-27T09:09:06;8.20;;;5.13;;
53666;SDS011;39568;51.026;5.468;2022-11-27T09:11:34;11.55;;;4.20;;
53666;SDS011;39568;51.026;5.468;2022-11-27T09:14:03;11.80;;;4.13;;
53666;SDS011;39568;51.026;5.468;2022-11-27T09:16:30;5.60;;;4.63;;
53666;SDS011;39568;51.026;5.468;2022-11-27T09:18:57;13.48;;;6.43;;
53666;SDS011;39568;51.026;5.468;2022-11-27T09:21:24;14.90;;;5.72;;
53666;SDS011;39568;51.026;5.468;2022-11-27T09:23:52;16.58;;;6.50;;
53666;SDS011;39568;51.026;5.468;2022-11-27T09:26:19;6.25;;;4.80;;
53666;SDS011;39568;51.026;5.468;2022-11-27T09:28:49;11.15;;;4.88;;
53666;SDS011;39568;51.026;5.468;2022-11-27T09:31:16;6.30;;;4.47;;
53666;SDS011;39568;51.026;5.468;2022-11-27T09:33:43;4.40;;;3.40;;
53666;SDS011;39568;51.026;5.468;2022-11-27T09:36:11;15.00;;;4.22;;
53666;SDS011;39568;51.026;5.468;2022-11-27T09:38:39;7.05;;;4.07;;
53666;SDS011;39568;51.026;5.468;2022-11-27T09:41:14;10.65;;;4.65;;
53666;SDS011;39568;51.026;5.468;2022-11-27T09:44:03;5.43;;;4.20;;
53666;SDS011;39568;51.026;5.468;2022-11-27T09:46:39;10.10;;;4.82;;
53666;SDS011;39568;51.026;5.468;2022-11-27T09:49:08;8.70;;;3.53;;
53666;SDS011;39568;51.026;5.468;2022-11-27T09:51:39;6.10;;;3.75;;
53666;SDS011;39568;51.026;5.468;2022-11-27T09:54:12;7.95;;;3.83;;
53666;SDS011;39568;51.026;5.468;2022-11-27T09:56:43;4.13;;;2.95;;
53666;SDS011;39568;51.026;5.468;2022-11-27T09:59:15;6.28;;;3.40;;
53666;SDS011;39568;51.026;5.468;2022-11-27T10:01:43;5.43;;;3.28;;
53666;SDS011;39568;51.026;5.468;2022-11-27T10:04:10;3.45;;;3.22;;
53666;SDS011;39568;51.026;5.468;2022-11-27T10:06:40;6.75;;;4.13;;
53666;SDS011;39568;51.026;5.468;2022-11-27T10:09:19;4.03;;;3.00;;
53666;SDS011;39568;51.026;5.468;2022-11-27T10:11:55;6.32;;;3.47;;
53666;SDS011;39568;51.026;5.468;2022-11-27T10:14:35;7.05;;;4.05;;
53666;SDS011;39568;51.026;5.468;2022-11-27T10:17:21;5.80;;;4.00;;
53666;SDS011;39568;51.026;5.468;2022-11-27T10:19:56;5.63;;;4.05;;
53666;SDS011;39568;51.026;5.468;2022-11-27T10:22:28;5.88;;;4.15;;
53666;SDS011;39568;51.026;5.468;2022-11-27T10:25:08;5.00;;;3.63;;
53666;SDS011;39568;51.026;5.468;2022-11-27T10:27:42;7.40;;;3.78;;
53666;SDS011;39568;51.026;5.468;2022-11-27T10:30:15;7.90;;;4.20;;
53666;SDS011;39568;51.026;5.468;2022-11-27T10:32:44;4.22;;;3.78;;
53666;SDS011;39568;51.026;5.468;2022-11-27T10:35:15;5.25;;;4.70;;
53666;SDS011;39568;51.026;5.468;2022-11-27T10:37:44;7.18;;;4.53;;
53666;SDS011;39568;51.026;5.468;2022-11-27T10:40:17;4.50;;;3.92;;
53666;SDS011;39568;51.026;5.468;2022-11-27T10:42:49;5.80;;;4.55;;
53666;SDS011;39568;51.026;5.468;2022-11-27T10:45:21;6.00;;;3.88;;
53666;SDS011;39568;51.026;5.468;2022-11-27T10:50:18;10.23;;;5.15;;
53666;SDS011;39568;51.026;5.468;2022-11-27T10:52:45;18.10;;;6.82;;
53666;SDS011;39568;51.026;5.468;2022-11-27T10:55:20;14.05;;;6.43;;
53666;SDS011;39568;51.026;5.468;2022-11-27T10:57:59;7.85;;;5.55;;
53666;SDS011;39568;51.026;5.468;2022-11-27T11:00:32;12.07;;;5.45;;
53666;SDS011;39568;51.026;5.468;2022-11-27T11:02:59;21.05;;;13.10;;
53666;SDS011;39568;51.026;5.468;2022-11-27T11:05:27;6.45;;;5.03;;
53666;SDS011;39568;51.026;5.468;2022-11-27T11:07:55;4.88;;;4.47;;
53666;SDS011;39568;51.026;5.468;2022-11-27T11:10:25;7.72;;;6.85;;
53666;SDS011;39568;51.026;5.468;2022-11-27T11:15:42;11.35;;;6.88;;
53666;SDS011;39568;51.026;5.468;2022-11-27T11:18:15;6.45;;;5.85;;
53666;SDS011;39568;51.026;5.468;2022-11-27T11:20:43;4.95;;;4.47;;
53666;SDS011;39568;51.026;5.468;2022-11-27T11:23:17;17.42;;;8.02;;
53666;SDS011;39568;51.026;5.468;2022-11-27T11:25:48;5.05;;;4.60;;
53666;SDS011;39568;51.026;5.468;2022-11-27T11:28:16;8.43;;;5.53;;
53666;SDS011;39568;51.026;5.468;2022-11-27T11:30:52;5.40;;;4.30;;
53666;SDS011;39568;51.026;5.468;2022-11-27T11:33:22;10.02;;;4.35;;
53666;SDS011;39568;51.026;5.468;2022-11-27T11:35:50;5.85;;;4.10;;
53666;SDS011;39568;51.026;5.468;2022-11-27T11:38:20;7.47;;;4.55;;
53666;SDS011;39568;51.026;5.468;2022-11-27T11:40:57;6.82;;;4.38;;
53666;SDS011;39568;51.026;5.468;2022-11-27T11:43:28;9.48;;;5.15;;
53666;SDS011;39568;51.026;5.468;2022-11-27T11:46:03;8.52;;;5.93;;
53666;SDS011;39568;51.026;5.468;2022-11-27T11:48:32;6.32;;;5.63;;
53666;SDS011;39568;51.026;5.468;2022-11-27T11:51:00;6.70;;;4.63;;
53666;SDS011;39568;51.026;5.468;2022-11-27T11:53:31;15.02;;;8.30;;
53666;SDS011;39568;51.026;5.468;2022-11-27T11:56:02;13.48;;;7.35;;
53666;SDS011;39568;51.026;5.468;2022-11-27T11:58:44;15.05;;;8.95;;
53666;SDS011;39568;51.026;5.468;2022-11-27T12:01:22;16.98;;;9.20;;
53666;SDS011;39568;51.026;5.468;2022-11-27T12:03:57;16.10;;;9.52;;
53666;SDS011;39568;51.026;5.468;2022-11-27T12:06:35;11.02;;;5.45;;
53666;SDS011;39568;51.026;5.468;2022-11-27T12:09:16;21.17;;;9.48;;
53666;SDS011;39568;51.026;5.468;2022-11-27T12:12:02;9.73;;;7.25;;
53666;SDS011;39568;51.026;5.468;2022-11-27T12:14:40;9.57;;;5.53;;
53666;SDS011;39568;51.026;5.468;2022-11-27T12:17:16;7.72;;;5.75;;
53666;SDS011;39568;51.026;5.468;2022-11-27T12:20:02;5.43;;;4.65;;
53666;SDS011;39568;51.026;5.468;2022-11-27T12:22:43;11.70;;;6.03;;
53666;SDS011;39568;51.026;5.468;2022-11-27T12:25:28;4.60;;;4.20;;
53666;SDS011;39568;51.026;5.468;2022-11-27T12:28:10;7.22;;;4.57;;
53666;SDS011;39568;51.026;5.468;2022-11-27T12:30:53;15.32;;;5.50;;
53666;SDS011;39568;51.026;5.468;2022-11-27T12:33:33;8.70;;;5.20;;
53666;SDS011;39568;51.026;5.468;2022-11-27T12:36:12;6.70;;;4.88;;
53666;SDS011;39568;51.026;5.468;2022-11-27T12:38:50;10.77;;;5.60;;
53666;SDS011;39568;51.026;5.468;2022-11-27T12:41:43;12.30;;;7.75;;
53666;SDS011;39568;51.026;5.468;2022-11-27T12:44:18;12.48;;;5.88;;
53666;SDS011;39568;51.026;5.468;2022-11-27T12:46:50;10.73;;;5.35;;
53666;SDS011;39568;51.026;5.468;2022-11-27T12:49:25;16.67;;;7.47;;
53666;SDS011;39568;51.026;5.468;2022-11-27T12:51:56;12.25;;;6.47;;
53666;SDS011;39568;51.026;5.468;2022-11-27T12:56:56;16.67;;;7.85;;
53666;SDS011;39568;51.026;5.468;2022-11-27T12:59:26;14.65;;;6.53;;
53666;SDS011;39568;51.026;5.468;2022-11-27T13:01:58;12.68;;;5.95;;
53666;SDS011;39568;51.026;5.468;2022-11-27T13:04:33;10.38;;;4.97;;
53666;SDS011;39568;51.026;5.468;2022-11-27T13:07:08;7.72;;;5.05;;
53666;SDS011;39568;51.026;5.468;2022-11-27T13:09:40;9.32;;;5.95;;
53666;SDS011;39568;51.026;5.468;2022-11-27T13:12:12;14.95;;;5.32;;
53666;SDS011;39568;51.026;5.468;2022-11-27T13:14:45;17.30;;;6.78;;
53666;SDS011;39568;51.026;5.468;2022-11-27T13:17:19;14.60;;;6.85;;
53666;SDS011;39568;51.026;5.468;2022-11-27T13:19:48;12.52;;;7.63;;
53666;SDS011;39568;51.026;5.468;2022-11-27T13:22:18;11.40;;;6.60;;
53666;SDS011;39568;51.026;5.468;2022-11-27T13:24:51;9.00;;;5.55;;
53666;SDS011;39568;51.026;5.468;2022-11-27T13:27:19;11.50;;;7.22;;
53666;SDS011;39568;51.026;5.468;2022-11-27T13:29:49;8.40;;;5.88;;
53666;SDS011;39568;51.026;5.468;2022-11-27T13:32:19;7.07;;;5.45;;
53666;SDS011;39568;51.026;5.468;2022-11-27T13:34:50;9.45;;;5.78;;
53666;SDS011;39568;51.026;5.468;2022-11-27T13:37:23;13.00;;;6.35;;
53666;SDS011;39568;51.026;5.468;2022-11-27T13:40:00;11.82;;;7.40;;
53666;SDS011;39568;51.026;5.468;2022-11-27T13:42:31;9.10;;;6.20;;
53666;SDS011;39568;51.026;5.468;2022-11-27T13:45:01;16.42;;;7.43;;
53666;SDS011;39568;51.026;5.468;2022-11-27T13:47:34;7.47;;;6.53;;
53666;SDS011;39568;51.026;5.468;2022-11-27T13:50:06;8.98;;;5.20;;
53666;SDS011;39568;51.026;5.468;2022-11-27T13:52:35;9.35;;;5.60;;
53666;SDS011;39568;51.026;5.468;2022-11-27T13:55:03;10.90;;;6.13;;
53666;SDS011;39568;51.026;5.468;2022-11-27T13:57:33;10.85;;;6.82;;
53666;SDS011;39568;51.026;5.468;2022-11-27T14:00:01;9.07;;;6.38;;
53666;SDS011;39568;51.026;5.468;2022-11-27T14:02:40;12.70;;;9.30;;
53666;SDS011;39568;51.026;5.468;2022-11-27T14:05:10;6.35;;;5.60;;
53666;SDS011;39568;51.026;5.468;2022-11-27T14:07:38;19.95;;;9.85;;
53666;SDS011;39568;51.026;5.468;2022-11-27T14:10:08;28.08;;;12.27;;
53666;SDS011;39568;51.026;5.468;2022-11-27T14:12:37;55.17;;;20.80;;
53666;SDS011;39568;51.026;5.468;2022-11-27T14:15:05;32.35;;;15.18;;
53666;SDS011;39568;51.026;5.468;2022-11-27T14:17:35;26.27;;;13.50;;
53666;SDS011;39568;51.026;5.468;2022-11-27T14:20:05;14.23;;;9.60;;
53666;SDS011;39568;51.026;5.468;2022-11-27T14:22:48;10.43;;;7.65;;
53666;SDS011;39568;51.026;5.468;2022-11-27T14:25:18;12.63;;;8.27;;
53666;SDS011;39568;51.026;5.468;2022-11-27T14:27:47;9.90;;;6.97;;
53666;SDS011;39568;51.026;5.468;2022-11-27T14:30:23;13.88;;;8.18;;
53666;SDS011;39568;51.026;5.468;2022-11-27T14:32:54;12.05;;;7.10;;
53666;SDS011;39568;51.026;5.468;2022-11-27T14:35:23;11.35;;;7.18;;
53666;SDS011;39568;51.026;5.468;2022-11-27T14:37:51;13.15;;;7.47;;
53666;SDS011;39568;51.026;5.468;2022-11-27T14:40:19;10.32;;;6.53;;
53666;SDS011;39568;51.026;5.468;2022-11-27T14:42:47;10.65;;;6.40;;
53666;SDS011;39568;51.026;5.468;2022-11-27T14:45:15;7.68;;;4.90;;
53666;SDS011;39568;51.026;5.468;2022-11-27T14:47:45;6.30;;;5.70;;
53666;SDS011;39568;51.026;5.468;2022-11-27T14:50:14;12.82;;;6.22;;
53666;SDS011;39568;51.026;5.468;2022-11-27T14:52:43;7.65;;;6.30;;
53666;SDS011;39568;51.026;5.468;2022-11-27T14:55:14;9.98;;;6.85;;
53666;SDS011;39568;51.026;5.468;2022-11-27T14:57:42;9.80;;;7.55;;
53666;SDS011;39568;51.026;5.468;2022-11-27T15:00:13;13.55;;;9.50;;
53666;SDS011;39568;51.026;5.468;2022-11-27T15:02:43;17.55;;;8.38;;
53666;SDS011;39568;51.026;5.468;2022-11-27T15:05:20;17.60;;;10.18;;
53666;SDS011;39568;51.026;5.468;2022-11-27T15:07:49;14.07;;;8.25;;
53666;SDS011;39568;51.026;5.468;2022-11-27T15:10:29;15.35;;;7.55;;
53666;SDS011;39568;51.026;5.468;2022-11-27T15:12:59;9.33;;;7.20;;